createdAt,value
2018-10-01T00:01:43.770Z,16.20
2018-10-01T00:04:11.861Z,15.90
2018-10-01T00:06:39.913Z,15.90
2018-10-01T00:09:08.556Z,16.30
2018-10-01T00:11:36.613Z,16.02
2018-10-01T00:14:04.695Z,15.95
2018-10-01T00:16:32.783Z,15.97
2018-10-01T00:19:00.846Z,16.30
2018-10-01T00:21:34.517Z,16.35
2018-10-01T00:24:02.584Z,15.98
2018-10-01T00:26:30.657Z,15.65
2018-10-01T00:28:58.737Z,16.77
2018-10-01T00:31:26.801Z,15.43
2018-10-01T00:33:54.885Z,16.17
2018-10-01T00:36:22.965Z,17.12
2018-10-01T00:38:51.028Z,16.35
2018-10-01T00:41:19.112Z,15.43
2018-10-01T00:43:47.179Z,15.50
2018-10-01T00:46:15.253Z,16.07
2018-10-01T00:48:43.334Z,16.77
2018-10-01T00:51:11.392Z,16.10
2018-10-01T00:53:39.458Z,15.90
2018-10-01T00:56:07.526Z,15.10
2018-10-01T00:58:35.607Z,14.30
2018-10-01T01:01:03.689Z,14.55
2018-10-01T01:03:31.753Z,15.05
2018-10-01T01:05:59.818Z,14.80
2018-10-01T01:08:27.913Z,14.45
2018-10-01T01:10:55.957Z,14.15
2018-10-01T01:13:24.013Z,13.80
2018-10-01T01:15:52.101Z,13.10
2018-10-01T01:18:20.173Z,12.87
2018-10-01T01:20:48.313Z,13.30
2018-10-01T01:23:16.377Z,11.90
2018-10-01T01:25:44.441Z,12.10
2018-10-01T01:28:12.561Z,11.57
2018-10-01T01:30:40.633Z,12.30
2018-10-01T01:33:08.709Z,11.60
2018-10-01T01:35:36.785Z,12.20
2018-10-01T01:38:05.083Z,12.68
2018-10-01T01:40:33.145Z,13.20
2018-10-01T01:43:01.219Z,14.70
2018-10-01T01:45:29.297Z,15.45
2018-10-01T01:47:57.363Z,15.70
2018-10-01T01:50:25.437Z,16.48
2018-10-01T01:52:53.606Z,16.40
2018-10-01T01:55:21.730Z,17.67
2018-10-01T01:57:49.794Z,18.30
2018-10-01T02:00:17.878Z,18.92
2018-10-01T02:02:45.989Z,19.70
2018-10-01T02:05:14.079Z,21.20
2018-10-01T02:07:42.201Z,20.92
2018-10-01T02:10:10.282Z,21.27
2018-10-01T02:12:38.349Z,21.33
2018-10-01T02:15:06.439Z,22.15
2018-10-01T02:17:36.488Z,20.57
2018-10-01T02:20:04.662Z,20.80
2018-10-01T02:22:32.730Z,19.47
2018-10-01T02:25:00.831Z,17.70
2018-10-01T02:27:28.885Z,18.67
2018-10-01T02:29:56.953Z,17.30
2018-10-01T02:32:25.052Z,17.70
2018-10-01T02:34:53.121Z,16.87
2018-10-01T02:37:21.193Z,15.72
2018-10-01T02:39:49.279Z,14.93
2018-10-01T02:42:17.325Z,14.00
2018-10-01T02:44:45.390Z,13.18
2018-10-01T02:47:13.433Z,11.75
2018-10-01T02:49:41.505Z,10.68
2018-10-01T02:52:14.913Z,11.10
2018-10-01T02:54:42.965Z,9.95
2018-10-01T02:57:11.010Z,8.70
2018-10-01T02:59:39.093Z,8.40
2018-10-01T03:02:07.142Z,8.00
2018-10-01T03:04:35.214Z,8.20
2018-10-01T03:07:03.262Z,7.08
2018-10-01T03:09:31.309Z,7.83
2018-10-01T03:11:59.404Z,5.50
2018-10-01T03:14:27.454Z,5.57
2018-10-01T03:16:55.505Z,7.22
2018-10-01T03:19:23.559Z,6.10
2018-10-01T03:21:51.609Z,5.37
2018-10-01T03:24:19.662Z,6.05
2018-10-01T03:26:47.709Z,5.22
2018-10-01T03:29:15.757Z,6.05
2018-10-01T03:31:43.835Z,6.00
2018-10-01T03:34:11.901Z,7.00
2018-10-01T03:36:39.986Z,5.37
2018-10-01T03:39:09.095Z,5.22
2018-10-01T03:41:37.378Z,5.17
2018-10-01T03:44:05.441Z,3.67
2018-10-01T03:46:33.509Z,5.00
2018-10-01T03:49:01.592Z,6.15
2018-10-01T03:51:29.669Z,4.30
2018-10-01T03:53:57.741Z,4.37
2018-10-01T03:56:25.818Z,4.90
2018-10-01T03:58:53.875Z,5.55
2018-10-01T04:01:21.926Z,3.37
2018-10-01T04:03:50.030Z,5.80
2018-10-01T04:06:18.094Z,4.78
2018-10-01T04:08:46.866Z,3.87
2018-10-01T04:11:14.883Z,3.62
2018-10-01T04:13:42.937Z,5.17
2018-10-01T04:16:11.010Z,4.07
2018-10-01T04:18:39.073Z,4.90
2018-10-01T04:21:07.138Z,4.80
2018-10-01T04:23:35.205Z,4.10
2018-10-01T04:26:03.278Z,4.53
2018-10-01T04:28:31.545Z,4.53
2018-10-01T04:30:59.621Z,4.33
2018-10-01T04:33:27.698Z,4.33
2018-10-01T04:35:55.782Z,6.20
2018-10-01T04:38:23.846Z,4.87
2018-10-01T04:40:52.182Z,3.98
2018-10-01T04:43:20.186Z,6.27
2018-10-01T04:45:48.294Z,4.42
2018-10-01T04:48:16.373Z,4.17
2018-10-01T04:50:44.446Z,5.60
2018-10-01T04:53:12.498Z,4.00
2018-10-01T04:55:40.558Z,4.85
2018-10-01T04:58:08.696Z,4.60
2018-10-01T05:00:36.734Z,7.17
2018-10-01T05:03:05.202Z,7.22
2018-10-01T05:05:33.265Z,9.60
2018-10-01T05:08:01.353Z,13.53
2018-10-01T05:10:29.413Z,18.98
2018-10-01T05:12:57.512Z,19.73
2018-10-01T05:15:25.643Z,22.60
2018-10-01T05:17:54.289Z,24.98
2018-10-01T05:20:22.361Z,26.82
2018-10-01T05:22:50.434Z,26.33
2018-10-01T05:25:18.501Z,29.07
2018-10-01T05:27:46.573Z,27.27
2018-10-01T05:30:14.662Z,27.15
2018-10-01T05:32:42.758Z,25.32
2018-10-01T05:35:11.222Z,25.07
2018-10-01T05:37:40.282Z,23.73
2018-10-01T05:40:08.290Z,23.80
2018-10-01T05:42:36.382Z,22.05
2018-10-01T05:45:04.534Z,20.23
2018-10-01T05:47:32.665Z,19.60
2018-10-01T05:50:00.754Z,17.27
2018-10-01T05:52:28.904Z,16.67
2018-10-01T05:54:57.166Z,16.82
2018-10-01T05:57:25.280Z,16.85
2018-10-01T05:59:53.354Z,16.07
2018-10-01T06:02:21.429Z,15.43
2018-10-01T06:04:49.481Z,13.03
2018-10-01T06:07:17.598Z,13.18
2018-10-01T06:09:45.669Z,15.80
2018-10-01T06:12:15.446Z,12.90
2018-10-01T06:14:43.485Z,12.55
2018-10-01T06:17:11.882Z,10.90
2018-10-01T06:19:40.002Z,11.10
2018-10-01T06:22:08.077Z,8.55
2018-10-01T06:24:36.291Z,10.70
2018-10-01T06:27:04.349Z,11.95
2018-10-01T06:29:32.634Z,10.85
2018-10-01T06:32:00.694Z,7.75
2018-10-01T06:34:28.773Z,8.08
2018-10-01T06:36:56.865Z,8.03
2018-10-01T06:39:24.962Z,7.20
2018-10-01T06:41:53.047Z,6.30
2018-10-01T06:44:21.162Z,8.07
2018-10-01T06:46:49.246Z,8.23
2018-10-01T06:49:17.300Z,7.97
2018-10-01T06:51:45.370Z,7.03
2018-10-01T06:54:13.418Z,8.15
2018-10-01T06:56:41.494Z,8.20
2018-10-01T06:59:09.578Z,7.45
2018-10-01T07:01:37.661Z,7.43
2018-10-01T07:04:05.757Z,6.62
2018-10-01T07:06:33.992Z,6.03
2018-10-01T07:09:02.082Z,4.40
2018-10-01T07:11:30.439Z,5.20
2018-10-01T07:13:58.566Z,5.95
2018-10-01T07:16:26.637Z,8.40
2018-10-01T07:18:54.725Z,4.87
2018-10-01T07:21:22.797Z,7.20
2018-10-01T07:23:50.885Z,6.55
2018-10-01T07:26:18.952Z,4.83
2018-10-01T07:28:47.066Z,5.92
2018-10-01T07:31:15.138Z,6.20
2018-10-01T07:33:43.206Z,7.83
2018-10-01T07:36:11.269Z,9.10
2018-10-01T07:38:39.319Z,8.73
2018-10-01T07:41:07.389Z,6.67
2018-10-01T07:43:35.446Z,5.25
2018-10-01T07:46:03.512Z,6.12
2018-10-01T07:48:31.569Z,5.40
2018-10-01T07:50:59.761Z,5.90
2018-10-01T07:53:27.739Z,4.60
2018-10-01T07:55:55.826Z,6.62
2018-10-01T07:58:23.877Z,6.37
2018-10-01T08:00:51.950Z,5.87
2018-10-01T08:03:20.364Z,4.30
2018-10-01T08:05:48.429Z,4.72
2018-10-01T08:08:16.517Z,4.75
2018-10-01T08:10:44.524Z,3.60
2018-10-01T08:13:12.573Z,3.37
2018-10-01T08:15:40.620Z,4.70
2018-10-01T08:18:08.677Z,3.22
2018-10-01T08:20:36.809Z,3.17
2018-10-01T08:23:04.774Z,3.70
2018-10-01T08:25:32.805Z,3.45
2018-10-01T08:28:00.850Z,5.25
2018-10-01T08:30:28.899Z,3.47
2018-10-01T08:32:56.963Z,6.25
2018-10-01T08:35:25.063Z,5.53
2018-10-01T08:37:53.122Z,2.67
2018-10-01T08:40:21.221Z,2.25
2018-10-01T08:42:49.304Z,3.10
2018-10-01T08:45:17.357Z,4.47
2018-10-01T08:47:45.700Z,3.60
2018-10-01T08:50:19.818Z,5.87
2018-10-01T08:52:54.450Z,3.80
2018-10-01T08:55:23.041Z,4.33
2018-10-01T08:57:51.085Z,5.60
2018-10-01T09:00:19.173Z,5.50
2018-10-01T09:02:47.318Z,5.33
2018-10-01T09:05:15.467Z,3.98
2018-10-01T09:07:43.483Z,5.03
2018-10-01T09:10:11.548Z,5.10
2018-10-01T09:12:39.625Z,4.33
2018-10-01T09:15:07.710Z,5.80
2018-10-01T09:17:35.837Z,3.67
2018-10-01T09:20:04.058Z,4.60
2018-10-01T09:22:32.058Z,4.55
2018-10-01T09:25:00.243Z,5.80
2018-10-01T09:27:28.326Z,5.08
2018-10-01T09:29:56.428Z,4.40
2018-10-01T09:32:24.495Z,4.30
2018-10-01T09:34:52.589Z,5.12
2018-10-01T09:37:20.645Z,4.37
2018-10-01T09:39:48.705Z,4.22
2018-10-01T09:42:16.841Z,4.87
2018-10-01T09:44:44.867Z,3.67
2018-10-01T09:47:12.934Z,5.33
2018-10-01T09:49:41.014Z,4.05
2018-10-01T09:52:09.113Z,3.33
2018-10-01T09:54:37.185Z,4.15
2018-10-01T09:57:05.325Z,3.33
2018-10-01T09:59:33.414Z,4.58
2018-10-01T10:02:01.522Z,5.37
2018-10-01T10:04:29.649Z,5.50
2018-10-01T10:06:57.658Z,4.10
2018-10-01T10:09:25.723Z,4.33
2018-10-01T10:11:53.789Z,4.10
2018-10-01T10:14:21.855Z,4.92
2018-10-01T10:16:50.106Z,5.25
2018-10-01T10:19:18.002Z,4.78
2018-10-01T10:21:46.061Z,4.47
2018-10-01T10:24:14.121Z,3.90
2018-10-01T10:26:42.487Z,3.92
2018-10-01T10:29:10.677Z,3.90
2018-10-01T10:31:38.737Z,3.67
2018-10-01T10:34:06.884Z,4.60
2018-10-01T10:36:34.885Z,5.13
2018-10-01T10:39:02.958Z,7.05
2018-10-01T10:41:31.043Z,3.40
2018-10-01T10:43:59.138Z,4.67
2018-10-01T10:46:27.171Z,3.10
2018-10-01T10:48:55.236Z,3.30
2018-10-01T10:51:23.294Z,1.82
2018-10-01T10:53:51.364Z,3.62
2018-10-01T10:56:19.420Z,3.50
2018-10-01T10:58:47.477Z,3.20
2018-10-01T11:01:15.517Z,3.35
2018-10-01T11:03:43.564Z,2.42
2018-10-01T11:06:11.610Z,2.45
2018-10-01T11:08:39.803Z,1.85
2018-10-01T11:11:07.753Z,2.47
2018-10-01T11:13:35.776Z,5.33
2018-10-01T11:16:03.841Z,4.83
2018-10-01T11:18:31.885Z,1.42
2018-10-01T11:21:00.036Z,2.22
2018-10-01T11:23:28.010Z,1.57
2018-10-01T11:25:56.051Z,1.60
2018-10-01T11:28:24.097Z,3.20
2018-10-01T11:30:52.171Z,2.00
2018-10-01T11:33:20.674Z,2.52
2018-10-01T11:35:48.708Z,3.52
2018-10-01T11:38:16.781Z,5.40
2018-10-01T11:40:45.886Z,2.05
2018-10-01T11:43:14.010Z,2.17
2018-10-01T11:45:42.156Z,2.40
2018-10-01T11:48:10.194Z,2.90
2018-10-01T11:50:38.310Z,3.30
2018-10-01T11:53:06.865Z,2.65
2018-10-01T11:55:34.967Z,2.08
2018-10-01T11:58:03.903Z,1.87
2018-10-01T12:00:31.990Z,1.90
2018-10-01T12:03:00.126Z,1.60
2018-10-01T12:05:28.154Z,3.20
2018-10-01T12:07:56.230Z,1.75
2018-10-01T12:10:24.320Z,3.80
2018-10-01T12:12:52.374Z,4.35
2018-10-01T12:15:20.472Z,3.80
2018-10-01T12:17:48.513Z,3.80
2018-10-01T12:20:16.643Z,2.47
2018-10-01T12:22:44.702Z,3.30
2018-10-01T12:25:12.785Z,3.77
2018-10-01T12:27:40.920Z,5.47
2018-10-01T12:30:08.986Z,4.10
2018-10-01T12:32:37.094Z,3.30
2018-10-01T12:35:05.731Z,2.95
2018-10-01T12:37:33.789Z,3.08
2018-10-01T12:40:01.880Z,3.98
2018-10-01T12:42:29.953Z,2.27
2018-10-01T12:44:58.210Z,3.22
2018-10-01T12:47:26.227Z,3.22
2018-10-01T12:49:54.317Z,3.27
2018-10-01T12:52:22.389Z,3.80
2018-10-01T12:54:50.439Z,3.40
2018-10-01T12:57:18.646Z,6.72
2018-10-01T12:59:46.614Z,4.05
2018-10-01T13:02:14.702Z,2.77
2018-10-01T13:04:42.781Z,3.20
2018-10-01T13:07:10.869Z,3.80
2018-10-01T13:09:38.942Z,3.22
2018-10-01T13:12:07.027Z,3.90
2018-10-01T13:14:35.189Z,5.35
2018-10-01T13:17:03.293Z,5.10
2018-10-01T13:19:31.373Z,6.65
2018-10-01T13:21:59.462Z,6.87
2018-10-01T13:24:27.632Z,6.00
2018-10-01T13:26:55.650Z,4.72
2018-10-01T13:29:23.798Z,5.55
2018-10-01T13:31:51.983Z,5.85
2018-10-01T13:34:20.035Z,5.12
2018-10-01T13:36:48.184Z,3.70
2018-10-01T13:39:16.202Z,4.95
2018-10-01T13:41:44.341Z,4.00
2018-10-01T13:44:12.481Z,4.17
2018-10-01T13:46:40.582Z,3.47
2018-10-01T13:49:08.664Z,4.20
2018-10-01T13:51:36.733Z,6.40
2018-10-01T13:54:04.871Z,5.05
2018-10-01T13:56:32.942Z,5.83
2018-10-01T13:59:00.999Z,4.50
2018-10-01T14:01:29.152Z,6.50
2018-10-01T14:03:57.202Z,6.05
2018-10-01T14:06:25.403Z,5.65
2018-10-01T14:08:54.017Z,8.13
2018-10-01T14:11:22.132Z,7.95
2018-10-01T14:13:50.294Z,5.85
2018-10-01T14:16:18.334Z,4.40
2018-10-01T14:18:46.566Z,3.80
2018-10-01T14:21:14.650Z,4.00
2018-10-01T14:23:42.737Z,4.35
2018-10-01T14:26:10.813Z,4.30
2018-10-01T14:28:38.898Z,3.95
2018-10-01T14:31:07.096Z,4.27
2018-10-01T14:33:35.125Z,4.70
2018-10-01T14:36:03.243Z,4.40
2018-10-01T14:38:31.262Z,5.45
2018-10-01T14:40:59.527Z,7.67
2018-10-01T14:43:27.591Z,4.53
2018-10-01T14:45:55.621Z,4.90
2018-10-01T14:48:23.707Z,5.00
2018-10-01T14:50:51.753Z,4.87
2018-10-01T14:53:19.801Z,5.05
2018-10-01T14:55:47.862Z,4.03
2018-10-01T14:58:15.914Z,4.03
2018-10-01T15:00:44.112Z,3.30
2018-10-01T15:03:12.202Z,5.57
2018-10-01T15:05:40.265Z,7.65
2018-10-01T15:08:08.474Z,7.00
2018-10-01T15:10:36.689Z,5.20
2018-10-01T15:13:04.710Z,5.72
2018-10-01T15:15:32.781Z,5.83
2018-10-01T15:18:00.859Z,4.67
2018-10-01T15:20:28.978Z,5.65
2018-10-01T15:22:57.207Z,5.00
2018-10-01T15:25:25.278Z,6.08
2018-10-01T15:27:53.345Z,4.90
2018-10-01T15:30:21.440Z,7.37
2018-10-01T15:32:49.496Z,6.00
2018-10-01T15:35:17.655Z,5.95
2018-10-01T15:37:45.778Z,6.80
2018-10-01T15:40:13.927Z,5.45
2018-10-01T15:42:42.018Z,6.50
2018-10-01T15:45:11.118Z,3.60
2018-10-01T15:47:39.218Z,5.85
2018-10-01T15:50:07.279Z,7.30
2018-10-01T15:52:35.362Z,7.33
2018-10-01T15:55:03.429Z,6.95
2018-10-01T15:57:31.506Z,5.87
2018-10-01T15:59:59.782Z,6.15
2018-10-01T16:02:28.081Z,7.85
2018-10-01T16:04:56.159Z,5.62
2018-10-01T16:07:24.233Z,5.95
2018-10-01T16:09:52.277Z,4.00
2018-10-01T16:12:20.398Z,6.75
2018-10-01T16:14:48.450Z,4.00
2018-10-01T16:17:16.737Z,6.72
2018-10-01T16:19:44.797Z,4.80
2018-10-01T16:22:12.858Z,5.30
2018-10-01T16:24:40.934Z,3.98
2018-10-01T16:27:08.991Z,4.55
2018-10-01T16:29:37.043Z,3.98
2018-10-01T16:32:05.102Z,3.83
2018-10-01T16:34:33.186Z,4.75
2018-10-01T16:37:01.270Z,4.47
2018-10-01T16:39:29.502Z,5.42
2018-10-01T16:41:57.550Z,2.60
2018-10-01T16:44:25.709Z,2.85
2018-10-01T16:46:53.761Z,4.17
2018-10-01T16:49:21.907Z,3.90
2018-10-01T16:51:49.942Z,3.00
2018-10-01T16:54:18.022Z,2.33
2018-10-01T16:56:46.090Z,3.30
2018-10-01T16:59:14.173Z,2.30
2018-10-01T17:01:42.290Z,4.22
2018-10-01T17:04:10.366Z,1.92
2018-10-01T17:06:38.422Z,1.70
2018-10-01T17:09:07.773Z,3.35
2018-10-01T17:11:35.857Z,3.42
2018-10-01T17:14:03.982Z,3.80
2018-10-01T17:16:32.041Z,2.45
2018-10-01T17:19:00.177Z,2.52
2018-10-01T17:21:28.260Z,2.58
2018-10-01T17:23:56.365Z,3.40
2018-10-01T17:26:24.520Z,3.00
2018-10-01T17:28:52.574Z,3.83
2018-10-01T17:31:20.670Z,4.40
2018-10-01T17:33:48.751Z,3.40
2018-10-01T17:36:16.869Z,4.55
2018-10-01T17:38:44.922Z,2.77
2018-10-01T17:41:13.006Z,4.60
2018-10-01T17:43:41.100Z,5.40
2018-10-01T17:46:09.189Z,4.55
2018-10-01T17:48:37.262Z,28.57
2018-10-01T17:51:06.242Z,5.22
2018-10-01T17:53:34.431Z,4.10
2018-10-01T17:56:02.541Z,3.33
2018-10-01T17:58:30.598Z,4.45
2018-10-01T18:00:58.689Z,4.25
2018-10-01T18:03:26.754Z,4.10
2018-10-01T18:05:54.975Z,3.52
2018-10-01T18:08:22.982Z,6.60
2018-10-01T18:10:51.068Z,5.25
2018-10-01T18:13:19.119Z,3.87
2018-10-01T18:15:47.201Z,3.67
2018-10-01T18:18:15.315Z,2.80
2018-10-01T18:20:43.370Z,4.50
2018-10-01T18:23:11.442Z,3.15
2018-10-01T18:25:39.542Z,4.33
2018-10-01T18:28:07.641Z,4.95
2018-10-01T18:30:35.699Z,4.42
2018-10-01T18:33:03.749Z,8.00
2018-10-01T18:35:31.825Z,3.52
2018-10-01T18:37:59.878Z,8.25
2018-10-01T18:40:28.007Z,4.62
2018-10-01T18:42:56.071Z,3.92
2018-10-01T18:45:24.378Z,4.62
2018-10-01T18:47:52.465Z,5.92
2018-10-01T18:50:20.497Z,3.12
2018-10-01T18:52:49.493Z,6.08
2018-10-01T18:55:18.010Z,5.95
2018-10-01T18:57:46.066Z,4.97
2018-10-01T19:00:14.168Z,3.90
2018-10-01T19:02:42.184Z,5.65
2018-10-01T19:05:10.850Z,5.53
2018-10-01T19:07:38.893Z,8.03
2018-10-01T19:10:08.194Z,6.03
2018-10-01T19:12:36.245Z,7.20
2018-10-01T19:15:04.608Z,6.00
2018-10-01T19:17:32.694Z,5.67
2018-10-01T19:20:00.761Z,6.95
2018-10-01T19:22:29.724Z,7.35
2018-10-01T19:24:57.782Z,6.23
2018-10-01T19:27:25.970Z,6.83
2018-10-01T19:29:53.942Z,5.97
2018-10-01T19:32:22.021Z,8.43
2018-10-01T19:34:50.136Z,5.73
2018-10-01T19:37:18.260Z,6.95
2018-10-01T19:39:46.296Z,5.00
2018-10-01T19:42:14.385Z,8.20
2018-10-01T19:44:42.541Z,7.20
2018-10-01T19:47:10.576Z,7.78
2018-10-01T19:49:38.601Z,4.90
2018-10-01T19:52:06.722Z,7.17
2018-10-01T19:54:35.242Z,6.67
2018-10-01T19:57:03.302Z,6.28
2018-10-01T19:59:31.379Z,8.40
2018-10-01T20:01:59.958Z,7.10
2018-10-01T20:04:27.994Z,6.40
2018-10-01T20:06:56.058Z,7.60
2018-10-01T20:09:24.175Z,9.65
2018-10-01T20:11:52.189Z,7.00
2018-10-01T20:14:20.249Z,6.22
2018-10-01T20:16:48.366Z,7.55
2018-10-01T20:19:16.398Z,5.70
2018-10-01T20:21:44.517Z,7.40
2018-10-01T20:24:12.660Z,8.63
2018-10-01T20:26:41.448Z,4.72
2018-10-01T20:29:09.706Z,8.83
2018-10-01T20:31:37.635Z,6.15
2018-10-01T20:34:05.705Z,7.33
2018-10-01T20:36:34.371Z,6.47
2018-10-01T20:39:02.369Z,6.37
2018-10-01T20:41:30.499Z,7.47
2018-10-01T20:43:58.665Z,6.08
2018-10-01T20:46:26.623Z,7.35
2018-10-01T20:48:54.693Z,4.90
2018-10-01T20:51:22.777Z,6.10
2018-10-01T20:53:50.983Z,8.13
2018-10-01T20:56:19.093Z,6.60
2018-10-01T20:58:47.203Z,6.90
2018-10-01T21:01:15.282Z,6.65
2018-10-01T21:03:43.337Z,4.58
2018-10-01T21:06:11.466Z,6.80
2018-10-01T21:08:39.527Z,4.22
2018-10-01T21:11:07.593Z,7.22
2018-10-01T21:13:35.666Z,9.50
2018-10-01T21:16:03.769Z,7.15
2018-10-01T21:18:32.838Z,9.80
2018-10-01T21:21:00.962Z,6.50
2018-10-01T21:23:29.029Z,6.33
2018-10-01T21:25:57.318Z,5.72
2018-10-01T21:28:25.462Z,10.60
2018-10-01T21:30:53.525Z,6.47
2018-10-01T21:33:21.602Z,6.47
2018-10-01T21:35:49.707Z,8.23
2018-10-01T21:38:17.769Z,6.53
2018-10-01T21:40:45.857Z,5.87
2018-10-01T21:43:13.917Z,5.67
2018-10-01T21:45:41.993Z,4.65
2018-10-01T21:48:10.059Z,6.25
2018-10-01T21:50:38.137Z,5.30
2018-10-01T21:53:06.197Z,7.72
2018-10-01T21:55:34.266Z,8.08
2018-10-01T21:58:02.301Z,8.13
2018-10-01T22:00:35.733Z,7.35
2018-10-01T22:03:03.809Z,7.05
2018-10-01T22:05:31.902Z,6.17
2018-10-01T22:07:59.981Z,6.47
2018-10-01T22:10:28.045Z,8.85
2018-10-01T22:12:56.121Z,7.47
2018-10-01T22:15:24.192Z,8.18
2018-10-01T22:17:52.250Z,6.87
2018-10-01T22:20:20.338Z,6.60
2018-10-01T22:22:48.406Z,7.30
2018-10-01T22:25:16.469Z,9.25
2018-10-01T22:30:35.284Z,7.20
2018-10-01T22:33:03.377Z,8.20
2018-10-01T22:35:31.445Z,7.85
2018-10-01T22:37:59.554Z,11.40
2018-10-01T22:40:27.601Z,8.58
2018-10-01T22:42:55.677Z,8.53
2018-10-01T22:45:23.747Z,7.33
2018-10-01T22:47:51.805Z,8.60
2018-10-01T22:50:19.904Z,8.58
2018-10-01T22:52:47.974Z,5.80
2018-10-01T22:55:16.041Z,6.45
2018-10-01T22:57:44.100Z,7.65
2018-10-01T23:00:12.177Z,7.35
2018-10-01T23:02:40.290Z,7.50
2018-10-01T23:05:08.328Z,8.65
2018-10-01T23:07:36.424Z,6.70
2018-10-01T23:10:04.508Z,7.03
2018-10-01T23:12:32.580Z,8.30
2018-10-01T23:15:00.651Z,5.70
2018-10-01T23:17:28.717Z,7.22
2018-10-01T23:19:56.800Z,8.90
2018-10-01T23:22:24.860Z,6.80
2018-10-01T23:24:52.930Z,6.75
2018-10-01T23:27:20.984Z,7.85
2018-10-01T23:29:49.044Z,8.53
2018-10-01T23:32:17.141Z,9.45
2018-10-01T23:34:45.159Z,9.73
2018-10-01T23:37:13.424Z,8.93
2018-10-01T23:39:41.480Z,7.55
2018-10-01T23:42:09.556Z,6.55
2018-10-01T23:44:37.613Z,6.50
2018-10-01T23:47:05.725Z,10.30
2018-10-01T23:49:33.796Z,6.90
2018-10-01T23:52:01.856Z,9.33
2018-10-01T23:54:29.924Z,5.80
2018-10-01T23:56:57.968Z,5.40
2018-10-01T23:59:26.041Z,7.40
